createdAt,value
2019-03-23T00:01:35.054Z,101786.41
2019-03-23T00:04:07.172Z,101783.43
2019-03-23T00:06:39.446Z,101782.92
2019-03-23T00:09:12.444Z,101775.47
2019-03-23T00:11:44.528Z,101772.81
2019-03-23T00:14:16.923Z,101762.71
2019-03-23T00:16:49.004Z,101767.00
2019-03-23T00:19:21.448Z,101770.36
2019-03-23T00:21:53.825Z,101766.02
2019-03-23T00:24:27.066Z,101762.91
2019-03-23T00:26:59.525Z,101757.27
2019-03-23T00:29:31.730Z,101753.27
2019-03-23T00:32:04.161Z,101750.89
2019-03-23T00:34:36.190Z,101754.05
2019-03-23T00:37:08.890Z,101756.98
2019-03-23T00:46:18.638Z,101738.58
2019-03-23T00:48:50.744Z,101739.79
2019-03-23T00:51:22.824Z,101738.41
2019-03-23T00:53:56.088Z,101741.89
2019-03-23T00:56:28.151Z,101745.23
2019-03-23T00:59:00.231Z,101739.08
2019-03-23T01:01:40.537Z,101742.06
2019-03-23T01:04:22.101Z,101741.55
2019-03-23T01:06:54.382Z,101734.50
2019-03-23T01:09:26.817Z,101738.41
2019-03-23T01:12:02.538Z,101730.02
2019-03-23T01:14:42.646Z,101739.56
2019-03-23T01:17:16.395Z,101735.55
2019-03-23T01:19:58.895Z,101731.59
2019-03-23T01:22:32.664Z,101726.73
2019-03-23T01:25:05.212Z,101729.75
2019-03-23T01:27:41.244Z,101727.09
2019-03-23T01:30:13.957Z,101730.01
2019-03-23T01:32:46.633Z,101721.30
2019-03-23T01:35:18.703Z,101715.11
2019-03-23T01:37:51.431Z,101719.83
2019-03-23T01:40:24.281Z,101724.95
2019-03-23T01:42:58.071Z,101720.50
2019-03-23T01:45:30.498Z,101724.40
2019-03-23T01:48:02.584Z,101720.45
2019-03-23T01:50:35.710Z,101719.49
2019-03-23T01:53:11.104Z,101724.11
2019-03-23T01:55:43.533Z,101719.27
2019-03-23T01:58:15.646Z,101715.25
2019-03-23T02:00:47.697Z,101720.92
2019-03-23T02:03:19.803Z,101715.28
2019-03-23T02:05:52.086Z,101710.14
2019-03-23T02:08:24.221Z,101712.63
2019-03-23T02:10:56.487Z,101711.80
2019-03-23T02:13:29.054Z,101696.83
2019-03-23T02:16:02.155Z,101691.91
2019-03-23T02:18:34.642Z,101695.20
2019-03-23T02:21:06.674Z,101695.98
2019-03-23T02:23:38.803Z,101693.68
2019-03-23T02:26:10.863Z,101702.33
2019-03-23T02:28:43.259Z,101703.21
2019-03-23T02:31:15.680Z,101705.05
2019-03-23T02:33:47.747Z,101704.58
2019-03-23T02:36:20.027Z,101701.02
2019-03-23T02:38:52.595Z,101703.20
2019-03-23T02:41:24.761Z,101703.96
2019-03-23T02:43:57.470Z,101701.31
2019-03-23T02:46:30.277Z,101702.11
2019-03-23T02:49:02.375Z,101701.09
2019-03-23T02:51:35.143Z,101701.97
2019-03-23T02:54:07.709Z,101703.20
2019-03-23T02:56:40.773Z,101704.41
2019-03-23T02:59:13.206Z,101706.52
2019-03-23T03:01:45.288Z,101715.62
2019-03-23T03:04:17.702Z,101714.66
2019-03-23T03:06:50.099Z,101711.99
2019-03-23T03:09:22.240Z,101712.86
2019-03-23T03:11:54.328Z,101713.22
2019-03-23T03:14:26.438Z,101713.55
2019-03-23T03:16:58.915Z,101715.19
2019-03-23T03:19:31.359Z,101711.31
2019-03-23T03:22:03.436Z,101714.64
2019-03-23T03:24:35.902Z,101712.39
2019-03-23T03:27:08.322Z,101714.41
2019-03-23T03:29:40.395Z,101707.78
2019-03-23T03:32:12.869Z,101716.38
2019-03-23T03:34:44.984Z,101715.45
2019-03-23T03:37:17.381Z,101715.86
2019-03-23T03:39:49.853Z,101711.11
2019-03-23T03:42:22.312Z,101709.21
2019-03-23T03:44:54.880Z,101709.55
2019-03-23T03:47:27.328Z,101710.48
2019-03-23T03:49:59.404Z,101708.38
2019-03-23T03:52:31.478Z,101711.19
2019-03-23T03:55:03.614Z,101709.66
2019-03-23T03:57:35.684Z,101716.98
2019-03-23T04:00:08.323Z,101712.77
2019-03-23T04:02:40.666Z,101717.53
2019-03-23T04:05:13.286Z,101711.32
2019-03-23T04:07:45.380Z,101710.28
2019-03-23T04:10:17.519Z,101712.08
2019-03-23T04:12:50.555Z,101710.62
2019-03-23T04:15:22.733Z,101712.72
2019-03-23T04:17:55.231Z,101702.72
2019-03-23T04:20:27.379Z,101702.59
2019-03-23T04:22:59.466Z,101703.05
2019-03-23T04:25:31.617Z,101702.00
2019-03-23T04:28:04.029Z,101697.48
2019-03-23T04:30:36.382Z,101702.94
2019-03-23T04:33:09.226Z,101699.31
2019-03-23T04:35:41.456Z,101696.49
2019-03-23T04:38:22.509Z,101700.33
2019-03-23T04:40:48.330Z,101707.05
2019-03-23T04:43:20.388Z,101710.73
2019-03-23T04:45:53.186Z,101713.15
2019-03-23T04:48:26.131Z,101726.14
2019-03-23T04:50:58.595Z,101731.97
2019-03-23T04:53:30.947Z,101739.63
2019-03-23T04:56:03.499Z,101742.56
2019-03-23T04:58:36.273Z,101744.97
2019-03-23T05:01:08.652Z,101747.77
2019-03-23T05:03:40.798Z,101750.03
2019-03-23T05:06:12.894Z,101752.95
2019-03-23T05:08:45.029Z,101755.83
2019-03-23T05:11:17.129Z,101750.64
2019-03-23T05:13:49.874Z,101751.64
2019-03-23T05:16:22.671Z,101750.46
2019-03-23T05:18:55.170Z,101757.70
2019-03-23T05:21:27.208Z,101762.36
2019-03-23T05:23:59.877Z,101766.11
2019-03-23T05:26:32.327Z,101757.45
2019-03-23T05:29:04.778Z,101765.77
2019-03-23T05:31:37.122Z,101767.89
2019-03-23T05:34:09.400Z,101767.25
2019-03-23T05:36:42.406Z,101765.36
2019-03-23T05:39:14.608Z,101781.50
2019-03-23T05:41:47.071Z,101779.13
2019-03-23T05:44:19.156Z,101784.11
2019-03-23T05:46:51.235Z,101793.50
2019-03-23T05:49:23.378Z,101794.25
2019-03-23T05:51:56.446Z,101802.27
2019-03-23T05:54:29.390Z,101799.83
2019-03-23T05:57:01.854Z,101803.83
2019-03-23T05:59:34.258Z,101805.27
2019-03-23T06:02:06.759Z,101802.36
2019-03-23T06:04:39.971Z,101803.19
2019-03-23T06:07:12.292Z,101796.69
2019-03-23T06:09:44.713Z,101800.45
2019-03-23T06:12:17.780Z,101804.06
2019-03-23T06:14:51.535Z,101811.00
2019-03-23T06:17:23.929Z,101812.55
2019-03-23T06:19:56.376Z,101818.31
2019-03-23T06:22:28.477Z,101824.45
2019-03-23T06:25:00.555Z,101824.65
2019-03-23T06:27:33.086Z,101831.64
2019-03-23T06:30:06.026Z,101836.63
2019-03-23T06:32:38.490Z,101838.40
2019-03-23T06:35:11.496Z,101835.45
2019-03-23T06:37:44.985Z,101834.20
2019-03-23T06:40:17.126Z,101836.11
2019-03-23T06:42:59.156Z,101848.02
2019-03-23T06:45:24.312Z,101844.69
2019-03-23T06:47:56.835Z,101836.19
2019-03-23T06:50:29.284Z,101839.73
2019-03-23T06:53:01.724Z,101837.34
2019-03-23T06:55:34.178Z,101840.84
2019-03-23T06:58:06.721Z,101853.98
2019-03-23T07:00:38.814Z,101848.38
2019-03-23T07:03:11.041Z,101851.09
2019-03-23T07:05:43.215Z,101855.52
2019-03-23T07:08:16.219Z,101860.00
2019-03-23T07:10:48.383Z,101862.72
2019-03-23T07:13:20.499Z,101864.50
2019-03-23T07:15:52.979Z,101862.41
2019-03-23T07:18:25.791Z,101869.71
2019-03-23T07:20:57.918Z,101877.13
2019-03-23T07:23:30.762Z,101874.25
2019-03-23T07:26:02.909Z,101878.55
2019-03-23T07:28:34.985Z,101878.70
2019-03-23T07:31:07.139Z,101888.71
2019-03-23T07:33:39.280Z,101889.61
2019-03-23T07:36:11.394Z,101894.45
2019-03-23T07:38:43.896Z,101916.62
2019-03-23T07:41:16.055Z,101916.62
2019-03-23T07:43:48.495Z,101922.75
2019-03-23T07:46:20.591Z,101925.19
2019-03-23T07:48:52.719Z,101927.42
2019-03-23T07:51:25.203Z,101936.55
2019-03-23T07:53:58.208Z,101944.38
2019-03-23T07:56:30.726Z,101940.05
2019-03-23T07:59:03.451Z,101940.05
2019-03-23T08:01:35.884Z,101948.34
2019-03-23T08:04:08.101Z,101950.19
2019-03-23T08:06:40.875Z,101960.09
2019-03-23T08:09:20.414Z,101956.18
2019-03-23T08:11:46.799Z,101957.55
2019-03-23T08:14:19.285Z,101963.27
2019-03-23T08:16:51.418Z,101958.11
2019-03-23T08:19:24.139Z,101950.76
2019-03-23T08:21:56.516Z,101953.80
2019-03-23T08:24:28.987Z,101955.72
2019-03-23T08:27:01.443Z,101956.61
2019-03-23T08:29:34.232Z,101955.89
2019-03-23T08:32:06.297Z,101954.89
2019-03-23T08:34:38.720Z,101964.48
2019-03-23T08:37:11.812Z,101962.19
2019-03-23T08:39:48.677Z,101965.43
2019-03-23T08:42:18.401Z,101963.72
2019-03-23T08:44:51.024Z,101972.37
2019-03-23T08:47:23.510Z,101973.79
2019-03-23T08:49:55.965Z,101972.12
2019-03-23T08:52:29.026Z,101986.00
2019-03-23T08:55:01.602Z,101988.94
2019-03-23T08:57:33.730Z,101978.60
2019-03-23T09:00:06.894Z,101980.79
2019-03-23T09:02:38.969Z,101986.00
2019-03-23T09:05:11.356Z,101980.78
2019-03-23T09:07:43.436Z,101981.05
2019-03-23T09:10:15.845Z,101996.51
2019-03-23T09:12:48.074Z,101996.91
2019-03-23T09:15:20.172Z,102002.98
2019-03-23T09:17:52.262Z,102007.27
2019-03-23T09:20:24.654Z,102009.92
2019-03-23T09:22:57.398Z,102010.13
2019-03-23T09:25:30.334Z,102010.45
2019-03-23T09:28:02.500Z,102006.58
2019-03-23T09:30:34.642Z,102008.58
2019-03-23T09:33:06.743Z,102007.31
2019-03-23T09:35:39.474Z,102010.82
2019-03-23T09:38:11.821Z,102010.34
2019-03-23T09:40:43.881Z,102018.34
2019-03-23T09:43:16.368Z,102025.42
2019-03-23T09:45:48.844Z,102026.68
2019-03-23T09:48:21.288Z,102029.44
2019-03-23T09:50:53.436Z,102044.45
2019-03-23T09:53:25.529Z,102053.17
2019-03-23T09:55:57.737Z,102051.13
2019-03-23T09:58:29.869Z,102048.88
2019-03-23T10:01:02.183Z,102056.91
2019-03-23T10:03:34.605Z,102063.91
2019-03-23T10:06:07.428Z,102061.20
2019-03-23T10:08:39.922Z,102065.69
2019-03-23T10:11:12.351Z,102073.89
2019-03-23T10:13:46.152Z,102074.31
2019-03-23T10:16:18.848Z,102077.03
2019-03-23T10:18:51.300Z,102075.89
2019-03-23T10:21:23.389Z,102089.79
2019-03-23T10:23:55.884Z,102088.73
2019-03-23T10:26:28.437Z,102092.22
2019-03-23T10:29:01.333Z,102094.41
2019-03-23T10:31:33.430Z,102094.23
2019-03-23T10:34:05.534Z,102096.77
2019-03-23T10:36:37.702Z,102097.55
2019-03-23T10:39:09.825Z,102096.40
2019-03-23T10:41:41.903Z,102097.66
2019-03-23T10:44:14.409Z,102095.14
2019-03-23T10:46:46.536Z,102097.54
2019-03-23T10:49:18.613Z,102090.55
2019-03-23T10:51:50.739Z,102090.91
2019-03-23T10:54:22.813Z,102092.05
2019-03-23T10:56:55.238Z,102096.56
2019-03-23T10:59:28.107Z,102094.92
2019-03-23T11:02:00.271Z,102095.92
2019-03-23T11:04:32.762Z,102094.37
2019-03-23T11:07:05.578Z,102088.17
2019-03-23T11:09:38.391Z,102086.97
2019-03-23T11:12:10.909Z,102091.11
2019-03-23T11:14:43.755Z,102091.11
2019-03-23T11:17:15.866Z,102090.27
2019-03-23T11:19:48.003Z,102095.12
2019-03-23T11:22:20.840Z,102096.69
2019-03-23T11:24:53.301Z,102100.95
2019-03-23T11:27:25.701Z,102096.84
2019-03-23T11:29:57.846Z,102103.95
2019-03-23T11:32:30.656Z,102103.23
2019-03-23T11:35:03.116Z,102110.70
2019-03-23T11:37:35.280Z,102114.38
2019-03-23T11:40:07.908Z,102111.88
2019-03-23T11:42:49.314Z,102114.62
2019-03-23T11:45:14.606Z,102116.81
2019-03-23T11:47:47.391Z,102115.12
2019-03-23T11:50:19.643Z,102124.20
2019-03-23T11:52:51.834Z,102115.62
2019-03-23T11:55:24.269Z,102118.77
2019-03-23T11:57:56.715Z,102117.00
2019-03-23T12:00:28.860Z,102121.05
2019-03-23T12:03:01.346Z,102119.17
2019-03-23T12:05:33.714Z,102107.81
2019-03-23T12:08:05.861Z,102103.75
2019-03-23T12:10:38.402Z,102106.80
2019-03-23T12:13:11.006Z,102104.41
2019-03-23T12:15:43.191Z,102103.61
2019-03-23T12:18:15.862Z,102107.47
2019-03-23T12:20:48.965Z,102103.07
2019-03-23T12:23:21.116Z,102117.93
2019-03-23T12:25:53.755Z,102125.64
2019-03-23T12:28:27.089Z,102119.08
2019-03-23T12:30:59.193Z,102120.02
2019-03-23T12:33:31.590Z,102125.33
2019-03-23T12:36:04.620Z,102119.21
2019-03-23T12:38:36.812Z,102116.79
2019-03-23T12:41:18.654Z,102126.05
2019-03-23T12:43:42.770Z,102117.23
2019-03-23T12:46:15.202Z,102119.68
2019-03-23T12:48:47.335Z,102121.59
2019-03-23T12:51:19.420Z,102117.74
2019-03-23T12:53:52.501Z,102110.86
2019-03-23T12:56:25.086Z,102112.61
2019-03-23T12:58:57.275Z,102115.68
2019-03-23T13:01:29.423Z,102106.94
2019-03-23T13:04:01.524Z,102110.00
2019-03-23T13:06:33.647Z,102113.50
2019-03-23T13:09:07.760Z,102109.55
2019-03-23T13:11:39.884Z,102106.05
2019-03-23T13:14:12.398Z,102113.95
2019-03-23T13:16:44.869Z,102107.78
2019-03-23T13:19:16.998Z,102109.99
2019-03-23T13:21:49.490Z,102105.59
2019-03-23T13:24:22.732Z,102112.51
2019-03-23T13:26:55.252Z,102112.52
2019-03-23T13:29:27.683Z,102104.11
2019-03-23T13:32:00.168Z,102115.34
2019-03-23T13:34:32.278Z,102106.95
2019-03-23T13:37:04.790Z,102104.76
2019-03-23T13:39:37.268Z,102100.36
2019-03-23T13:42:09.564Z,102098.16
2019-03-23T13:44:42.029Z,101843.42
2019-03-23T13:47:14.524Z,102093.86
2019-03-23T13:49:46.765Z,102097.84
2019-03-23T13:52:18.857Z,102092.59
2019-03-23T13:54:51.905Z,102097.20
2019-03-23T13:57:24.716Z,102097.44
2019-03-23T13:59:57.518Z,102086.48
2019-03-23T14:02:30.384Z,102091.28
2019-03-23T14:05:02.930Z,102091.41
2019-03-23T14:07:35.148Z,102090.44
2019-03-23T14:10:07.951Z,102098.73
2019-03-23T14:12:40.093Z,102096.86
2019-03-23T14:15:12.729Z,102102.65
2019-03-23T14:17:45.497Z,102097.27
2019-03-23T14:20:17.856Z,102094.33
2019-03-23T14:22:50.628Z,102099.42
2019-03-23T14:25:23.552Z,102090.34
2019-03-23T14:27:56.049Z,102088.02
2019-03-23T14:30:28.611Z,102092.87
2019-03-23T14:33:00.888Z,102094.52
2019-03-23T14:35:32.961Z,102091.08
2019-03-23T14:38:05.432Z,102092.91
2019-03-23T14:40:37.567Z,102094.53
2019-03-23T14:43:10.239Z,102090.45
2019-03-23T14:45:42.698Z,102090.29
2019-03-23T14:48:14.935Z,102092.65
2019-03-23T14:50:47.061Z,102093.80
2019-03-23T14:53:19.537Z,102092.97
2019-03-23T14:55:52.861Z,102087.78
2019-03-23T14:58:24.963Z,102092.52
2019-03-23T15:00:57.067Z,102095.41
2019-03-23T15:03:29.194Z,102098.05
2019-03-23T15:06:01.964Z,102092.75
2019-03-23T15:08:34.470Z,102098.00
2019-03-23T15:11:07.276Z,102099.88
2019-03-23T15:13:39.806Z,102102.47
2019-03-23T15:16:11.983Z,102107.23
2019-03-23T15:18:44.516Z,102103.38
2019-03-23T15:21:16.623Z,102102.47
2019-03-23T15:23:49.612Z,102102.95
2019-03-23T15:26:22.430Z,102111.76
2019-03-23T15:28:54.520Z,102109.13
2019-03-23T15:31:26.632Z,102110.02
2019-03-23T15:33:58.741Z,102109.11
2019-03-23T15:36:30.870Z,102105.60
2019-03-23T15:39:04.606Z,102105.19
2019-03-23T15:41:36.792Z,102104.30
2019-03-23T15:44:11.767Z,102102.98
2019-03-23T15:46:44.207Z,102097.72
2019-03-23T15:49:16.347Z,102108.23
2019-03-23T15:51:49.060Z,102104.70
2019-03-23T15:54:21.497Z,102113.48
2019-03-23T15:56:53.688Z,102112.55
2019-03-23T15:59:26.565Z,102109.92
2019-03-23T16:01:59.234Z,102114.33
2019-03-23T16:04:31.409Z,102114.72
2019-03-23T16:07:06.917Z,102116.88
2019-03-23T16:09:39.051Z,102121.68
2019-03-23T16:12:11.662Z,102122.99
2019-03-23T16:14:44.193Z,102124.30
2019-03-23T16:17:16.875Z,102121.17
2019-03-23T16:19:49.650Z,102127.71
2019-03-23T16:22:21.784Z,102121.98
2019-03-23T16:24:54.383Z,102125.94
2019-03-23T16:27:26.526Z,102125.06
2019-03-23T16:29:59.426Z,102116.73
2019-03-23T16:32:32.266Z,102120.25
2019-03-23T16:35:05.345Z,102114.94
2019-03-23T16:37:37.436Z,102114.47
2019-03-23T16:40:13.462Z,102115.30
2019-03-23T16:42:45.904Z,102109.64
2019-03-23T16:45:18.631Z,102106.05
2019-03-23T16:47:50.866Z,102104.34
2019-03-23T16:50:23.028Z,102112.61
2019-03-23T16:52:55.137Z,102117.41
2019-03-23T16:55:27.219Z,102120.89
2019-03-23T16:57:59.470Z,102128.73
2019-03-23T17:00:39.129Z,102136.99
2019-03-23T17:03:11.611Z,102136.99
2019-03-23T17:05:43.815Z,102136.16
2019-03-23T17:08:16.241Z,102139.19
2019-03-23T17:10:48.383Z,102133.01
2019-03-23T17:13:21.143Z,102137.38
2019-03-23T17:15:53.284Z,102143.48
2019-03-23T17:18:25.409Z,102141.25
2019-03-23T17:20:57.614Z,102141.67
2019-03-23T17:23:29.783Z,102144.77
2019-03-23T17:26:01.956Z,102145.59
2019-03-23T17:28:34.084Z,102151.66
2019-03-23T17:31:06.216Z,102149.44
2019-03-23T17:33:38.312Z,102158.14
2019-03-23T17:36:10.457Z,102148.91
2019-03-23T17:38:42.558Z,102148.87
2019-03-23T17:41:14.642Z,102150.19
2019-03-23T17:43:47.617Z,102151.45
2019-03-23T17:46:20.135Z,102152.30
2019-03-23T17:48:52.236Z,102153.62
2019-03-23T17:51:24.501Z,102154.88
2019-03-23T17:53:58.759Z,102161.03
2019-03-23T17:56:31.003Z,102162.71
2019-03-23T17:59:03.198Z,102160.95
2019-03-23T18:01:36.004Z,102164.88
2019-03-23T18:04:08.457Z,102167.41
2019-03-23T18:06:41.237Z,102171.64
2019-03-23T18:09:13.410Z,102174.30
2019-03-23T18:11:45.506Z,102171.61
2019-03-23T18:14:18.539Z,102169.88
2019-03-23T18:16:50.626Z,102167.66
2019-03-23T18:19:22.770Z,102172.00
2019-03-23T18:21:55.310Z,102177.22
2019-03-23T18:24:27.400Z,102174.92
2019-03-23T18:27:01.487Z,102178.39
2019-03-23T18:29:33.661Z,102179.20
2019-03-23T18:32:05.781Z,102176.55
2019-03-23T18:34:37.910Z,102182.57
2019-03-23T18:37:10.078Z,102188.63
2019-03-23T18:39:42.488Z,102186.42
2019-03-23T18:42:14.585Z,102194.78
2019-03-23T18:44:46.758Z,102200.02
2019-03-23T18:47:19.645Z,102204.27
2019-03-23T18:49:51.714Z,102207.34
2019-03-23T18:52:24.190Z,102205.57
2019-03-23T18:54:56.513Z,102206.00
2019-03-23T18:57:28.972Z,102208.20
2019-03-23T19:00:01.151Z,102207.73
2019-03-23T19:02:33.530Z,102212.85
2019-03-23T19:05:06.327Z,102219.78
2019-03-23T19:07:38.780Z,102208.84
2019-03-23T19:10:11.196Z,102214.47
2019-03-23T19:12:43.648Z,102215.77
2019-03-23T19:15:15.830Z,102211.34
2019-03-23T19:17:47.946Z,102214.33
2019-03-23T19:20:20.038Z,102213.41
2019-03-23T19:22:52.245Z,102215.47
2019-03-23T19:25:24.689Z,102211.50
2019-03-23T19:27:56.918Z,102211.41
2019-03-23T19:36:59.965Z,102218.99
2019-03-23T19:39:32.867Z,102224.92
2019-03-23T19:42:05.367Z,102219.64
2019-03-23T19:44:38.824Z,102222.57
2019-03-23T19:47:10.908Z,102216.31
2019-03-23T19:49:42.995Z,102217.56
2019-03-23T19:52:15.113Z,102220.45
2019-03-23T19:54:47.554Z,102224.31
2019-03-23T19:57:19.958Z,102231.16
2019-03-23T19:59:52.285Z,102228.92
2019-03-23T20:02:24.534Z,102230.48
2019-03-23T20:04:56.589Z,102229.06
2019-03-23T20:07:33.065Z,102234.06
2019-03-23T20:10:03.604Z,102237.10
2019-03-23T20:12:36.345Z,102245.70
2019-03-23T20:15:09.671Z,102243.39
2019-03-23T20:17:41.739Z,102241.56
2019-03-23T20:20:14.686Z,102245.36
2019-03-23T20:22:47.129Z,102255.21
2019-03-23T20:25:19.239Z,102255.45
2019-03-23T20:27:52.009Z,102251.94
2019-03-23T20:30:24.615Z,102254.02
2019-03-23T20:32:56.714Z,102259.95
2019-03-23T20:35:28.806Z,102251.14
2019-03-23T20:38:01.343Z,102252.75
2019-03-23T20:40:33.798Z,102243.00
2019-03-23T20:43:05.865Z,102245.56
2019-03-23T20:45:37.993Z,102255.02
2019-03-23T20:48:10.181Z,102252.41
2019-03-23T20:50:43.364Z,102248.02
2019-03-23T20:53:19.042Z,102253.52
2019-03-23T20:55:51.130Z,102251.72
2019-03-23T20:58:23.198Z,102248.50
2019-03-23T21:00:55.645Z,102243.77
2019-03-23T21:03:27.733Z,102252.34
2019-03-23T21:05:59.839Z,102243.91
2019-03-23T21:08:31.950Z,102241.17
2019-03-23T21:11:04.218Z,102239.77
2019-03-23T21:13:36.308Z,102241.42
2019-03-23T21:16:08.466Z,102241.34
2019-03-23T21:18:40.559Z,102244.22
2019-03-23T21:21:12.911Z,102244.64
2019-03-23T21:23:45.436Z,102241.33
2019-03-23T21:26:17.869Z,102249.13
2019-03-23T21:28:50.094Z,102243.71
2019-03-23T21:31:22.613Z,102243.71
2019-03-23T21:33:54.720Z,102245.25
2019-03-23T21:36:26.912Z,102243.48
2019-03-23T21:38:59.425Z,102241.77
2019-03-23T21:41:31.510Z,102245.53
2019-03-23T21:44:03.602Z,102243.76
2019-03-23T21:46:35.841Z,102243.91
2019-03-23T21:49:07.918Z,102241.23
2019-03-23T21:51:40.452Z,102244.58
2019-03-23T21:54:12.686Z,102241.81
2019-03-23T21:56:45.085Z,102238.88
2019-03-23T21:59:17.608Z,102241.67
2019-03-23T22:01:50.032Z,102233.20
2019-03-23T22:04:22.193Z,102236.13
2019-03-23T22:06:54.301Z,102232.95
2019-03-23T22:09:26.745Z,102232.30
2019-03-23T22:11:59.822Z,102230.91
2019-03-23T22:14:41.296Z,102239.55
2019-03-23T22:17:06.092Z,102234.98
2019-03-23T22:19:38.148Z,102238.95
2019-03-23T22:22:10.240Z,102238.95
2019-03-23T22:24:42.544Z,102236.38
2019-03-23T22:27:14.718Z,102230.13
2019-03-23T22:29:47.183Z,102236.08
2019-03-23T22:32:19.276Z,102228.18
2019-03-23T22:34:51.743Z,102234.51
2019-03-23T22:37:23.816Z,102240.54
2019-03-23T22:39:56.006Z,102230.84
2019-03-23T22:42:28.232Z,102234.46
2019-03-23T22:45:00.965Z,102237.37
2019-03-23T22:47:33.325Z,102235.98
2019-03-23T22:50:06.189Z,102243.63
2019-03-23T22:52:38.387Z,102240.69
2019-03-23T22:55:11.130Z,102247.16
2019-03-23T22:57:43.562Z,102244.11
2019-03-23T23:00:19.064Z,102249.66
2019-03-23T23:02:51.540Z,102244.11
2019-03-23T23:05:23.600Z,102241.16
2019-03-23T23:07:55.687Z,102247.78
2019-03-23T23:10:28.115Z,102247.10
2019-03-23T23:13:00.562Z,102242.38
2019-03-23T23:15:33.077Z,102244.30
2019-03-23T23:18:05.748Z,102242.70
2019-03-23T23:20:37.841Z,102247.73
2019-03-23T23:23:16.472Z,102239.63
2019-03-23T23:25:56.992Z,102240.86
2019-03-23T23:28:34.181Z,102232.73
2019-03-23T23:31:07.883Z,102230.67
2019-03-23T23:33:40.361Z,102232.84
2019-03-23T23:36:15.097Z,102236.80
2019-03-23T23:38:52.452Z,102235.17
2019-03-23T23:41:28.077Z,102238.22
2019-03-23T23:44:01.323Z,102234.00
2019-03-23T23:46:37.990Z,102230.25
2019-03-23T23:49:11.918Z,102234.85
2019-03-23T23:51:50.131Z,102236.48
2019-03-23T23:54:19.766Z,102229.66
2019-03-23T23:56:53.254Z,102228.10
2019-03-23T23:59:27.689Z,102226.09
